sensor_id;sensor_type;location;lat;lon;timestamp;P1;durP1;ratioP1;P2;durP2;ratioP2
22439;SDS011;11387;51.612;7.210;2023-03-08T00:01:25;49.72;;;26.70;;
22439;SDS011;11387;51.612;7.210;2023-03-08T00:03:56;47.83;;;25.75;;
22439;SDS011;11387;51.612;7.210;2023-03-08T00:06:26;50.60;;;25.25;;
22439;SDS011;11387;51.612;7.210;2023-03-08T00:08:55;48.17;;;27.48;;
22439;SDS011;11387;51.612;7.210;2023-03-08T00:11:24;52.72;;;29.20;;
22439;SDS011;11387;51.612;7.210;2023-03-08T00:13:53;52.92;;;27.55;;
22439;SDS011;11387;51.612;7.210;2023-03-08T00:16:22;43.35;;;25.75;;
22439;SDS011;11387;51.612;7.210;2023-03-08T00:18:51;48.78;;;26.52;;
22439;SDS011;11387;51.612;7.210;2023-03-08T00:21:21;44.47;;;23.90;;
22439;SDS011;11387;51.612;7.210;2023-03-08T00:23:50;52.80;;;25.83;;
22439;SDS011;11387;51.612;7.210;2023-03-08T00:26:19;58.72;;;27.73;;
22439;SDS011;11387;51.612;7.210;2023-03-08T00:28:48;57.10;;;29.38;;
22439;SDS011;11387;51.612;7.210;2023-03-08T00:31:16;53.55;;;27.48;;
22439;SDS011;11387;51.612;7.210;2023-03-08T00:33:45;53.58;;;29.13;;
22439;SDS011;11387;51.612;7.210;2023-03-08T00:36:14;56.28;;;29.20;;
22439;SDS011;11387;51.612;7.210;2023-03-08T00:38:45;58.70;;;30.23;;
22439;SDS011;11387;51.612;7.210;2023-03-08T00:41:16;54.15;;;29.05;;
22439;SDS011;11387;51.612;7.210;2023-03-08T00:43:45;53.15;;;27.77;;
22439;SDS011;11387;51.612;7.210;2023-03-08T00:46:13;51.15;;;26.38;;
22439;SDS011;11387;51.612;7.210;2023-03-08T00:48:42;51.78;;;28.70;;
22439;SDS011;11387;51.612;7.210;2023-03-08T00:51:11;51.70;;;27.08;;
22439;SDS011;11387;51.612;7.210;2023-03-08T00:53:42;56.00;;;26.63;;
22439;SDS011;11387;51.612;7.210;2023-03-08T00:56:12;50.70;;;27.05;;
22439;SDS011;11387;51.612;7.210;2023-03-08T00:58:41;59.65;;;27.90;;
22439;SDS011;11387;51.612;7.210;2023-03-08T01:01:11;53.38;;;27.77;;
22439;SDS011;11387;51.612;7.210;2023-03-08T01:03:42;62.20;;;28.85;;
22439;SDS011;11387;51.612;7.210;2023-03-08T01:06:12;57.90;;;29.90;;
22439;SDS011;11387;51.612;7.210;2023-03-08T01:08:41;57.40;;;29.65;;
22439;SDS011;11387;51.612;7.210;2023-03-08T01:11:16;58.05;;;29.05;;
22439;SDS011;11387;51.612;7.210;2023-03-08T01:13:46;55.80;;;29.40;;
22439;SDS011;11387;51.612;7.210;2023-03-08T01:16:16;52.72;;;27.77;;
22439;SDS011;11387;51.612;7.210;2023-03-08T01:18:47;71.10;;;31.17;;
22439;SDS011;11387;51.612;7.210;2023-03-08T01:21:16;69.95;;;31.23;;
22439;SDS011;11387;51.612;7.210;2023-03-08T01:23:45;69.50;;;33.42;;
22439;SDS011;11387;51.612;7.210;2023-03-08T01:26:15;98.50;;;36.53;;
22439;SDS011;11387;51.612;7.210;2023-03-08T01:28:44;80.72;;;36.05;;
22439;SDS011;11387;51.612;7.210;2023-03-08T01:31:14;86.15;;;35.55;;
22439;SDS011;11387;51.612;7.210;2023-03-08T01:33:44;85.35;;;37.08;;
22439;SDS011;11387;51.612;7.210;2023-03-08T01:36:13;88.07;;;37.40;;
22439;SDS011;11387;51.612;7.210;2023-03-08T01:38:43;80.03;;;37.78;;
22439;SDS011;11387;51.612;7.210;2023-03-08T01:41:13;88.53;;;37.85;;
22439;SDS011;11387;51.612;7.210;2023-03-08T01:43:45;94.65;;;40.40;;
22439;SDS011;11387;51.612;7.210;2023-03-08T01:46:25;89.95;;;38.03;;
22439;SDS011;11387;51.612;7.210;2023-03-08T01:48:55;85.28;;;36.30;;
22439;SDS011;11387;51.612;7.210;2023-03-08T01:51:30;92.45;;;38.30;;
22439;SDS011;11387;51.612;7.210;2023-03-08T01:54:04;82.55;;;35.45;;
22439;SDS011;11387;51.612;7.210;2023-03-08T01:56:36;86.60;;;36.25;;
22439;SDS011;11387;51.612;7.210;2023-03-08T01:59:06;77.47;;;35.28;;
22439;SDS011;11387;51.612;7.210;2023-03-08T02:01:34;85.13;;;35.08;;
22439;SDS011;11387;51.612;7.210;2023-03-08T02:04:03;77.10;;;33.63;;
22439;SDS011;11387;51.612;7.210;2023-03-08T02:06:32;76.15;;;32.95;;
22439;SDS011;11387;51.612;7.210;2023-03-08T02:09:02;76.88;;;34.10;;
22439;SDS011;11387;51.612;7.210;2023-03-08T02:11:32;84.45;;;36.85;;
22439;SDS011;11387;51.612;7.210;2023-03-08T02:14:03;78.90;;;36.10;;
22439;SDS011;11387;51.612;7.210;2023-03-08T02:16:33;73.45;;;32.45;;
22439;SDS011;11387;51.612;7.210;2023-03-08T02:19:02;89.07;;;36.55;;
22439;SDS011;11387;51.612;7.210;2023-03-08T02:21:34;67.07;;;32.45;;
22439;SDS011;11387;51.612;7.210;2023-03-08T02:24:05;80.88;;;36.10;;
22439;SDS011;11387;51.612;7.210;2023-03-08T02:26:44;86.95;;;37.92;;
22439;SDS011;11387;51.612;7.210;2023-03-08T02:29:13;85.20;;;35.60;;
22439;SDS011;11387;51.612;7.210;2023-03-08T02:31:42;94.43;;;36.90;;
22439;SDS011;11387;51.612;7.210;2023-03-08T02:34:10;86.32;;;35.28;;
22439;SDS011;11387;51.612;7.210;2023-03-08T02:36:45;74.07;;;32.67;;
22439;SDS011;11387;51.612;7.210;2023-03-08T02:39:14;85.68;;;36.80;;
22439;SDS011;11387;51.612;7.210;2023-03-08T02:41:42;87.15;;;35.72;;
22439;SDS011;11387;51.612;7.210;2023-03-08T02:44:11;89.13;;;36.92;;
22439;SDS011;11387;51.612;7.210;2023-03-08T02:46:39;103.13;;;40.75;;
22439;SDS011;11387;51.612;7.210;2023-03-08T02:49:08;89.35;;;39.95;;
22439;SDS011;11387;51.612;7.210;2023-03-08T02:51:36;88.90;;;37.78;;
22439;SDS011;11387;51.612;7.210;2023-03-08T02:54:06;93.38;;;38.78;;
22439;SDS011;11387;51.612;7.210;2023-03-08T02:56:35;101.72;;;39.75;;
22439;SDS011;11387;51.612;7.210;2023-03-08T02:59:04;89.45;;;38.90;;
22439;SDS011;11387;51.612;7.210;2023-03-08T03:01:32;101.90;;;41.28;;
22439;SDS011;11387;51.612;7.210;2023-03-08T03:04:01;101.53;;;41.88;;
22439;SDS011;11387;51.612;7.210;2023-03-08T03:06:31;94.68;;;40.17;;
22439;SDS011;11387;51.612;7.210;2023-03-08T03:09:00;95.28;;;40.08;;
22439;SDS011;11387;51.612;7.210;2023-03-08T03:11:33;84.43;;;38.35;;
22439;SDS011;11387;51.612;7.210;2023-03-08T03:14:02;87.72;;;39.35;;
22439;SDS011;11387;51.612;7.210;2023-03-08T03:16:31;83.18;;;36.17;;
22439;SDS011;11387;51.612;7.210;2023-03-08T03:18:59;90.00;;;38.20;;
22439;SDS011;11387;51.612;7.210;2023-03-08T03:21:28;84.05;;;36.15;;
22439;SDS011;11387;51.612;7.210;2023-03-08T03:23:57;82.10;;;36.55;;
22439;SDS011;11387;51.612;7.210;2023-03-08T03:26:25;81.13;;;36.50;;
22439;SDS011;11387;51.612;7.210;2023-03-08T03:28:56;93.15;;;38.00;;
22439;SDS011;11387;51.612;7.210;2023-03-08T03:31:25;82.65;;;34.70;;
22439;SDS011;11387;51.612;7.210;2023-03-08T03:33:54;92.35;;;35.08;;
22439;SDS011;11387;51.612;7.210;2023-03-08T03:36:26;90.57;;;37.05;;
22439;SDS011;11387;51.612;7.210;2023-03-08T03:38:54;88.85;;;35.92;;
22439;SDS011;11387;51.612;7.210;2023-03-08T03:41:23;91.68;;;34.50;;
22439;SDS011;11387;51.612;7.210;2023-03-08T03:43:52;79.18;;;36.05;;
22439;SDS011;11387;51.612;7.210;2023-03-08T03:46:22;81.68;;;35.08;;
22439;SDS011;11387;51.612;7.210;2023-03-08T03:48:51;78.35;;;34.65;;
22439;SDS011;11387;51.612;7.210;2023-03-08T03:51:20;83.40;;;35.75;;
22439;SDS011;11387;51.612;7.210;2023-03-08T03:53:51;79.57;;;34.80;;
22439;SDS011;11387;51.612;7.210;2023-03-08T03:56:20;78.32;;;34.92;;
22439;SDS011;11387;51.612;7.210;2023-03-08T03:58:53;73.18;;;33.38;;
22439;SDS011;11387;51.612;7.210;2023-03-08T04:01:25;80.20;;;35.78;;
22439;SDS011;11387;51.612;7.210;2023-03-08T04:03:56;88.22;;;36.85;;
22439;SDS011;11387;51.612;7.210;2023-03-08T04:06:28;81.57;;;34.70;;
22439;SDS011;11387;51.612;7.210;2023-03-08T04:08:59;86.97;;;35.78;;
22439;SDS011;11387;51.612;7.210;2023-03-08T04:11:31;98.75;;;36.60;;
22439;SDS011;11387;51.612;7.210;2023-03-08T04:14:01;72.22;;;32.40;;
22439;SDS011;11387;51.612;7.210;2023-03-08T04:16:32;80.65;;;34.33;;
22439;SDS011;11387;51.612;7.210;2023-03-08T04:19:03;78.35;;;34.17;;
22439;SDS011;11387;51.612;7.210;2023-03-08T04:21:33;73.05;;;33.80;;
22439;SDS011;11387;51.612;7.210;2023-03-08T04:24:02;101.75;;;37.22;;
22439;SDS011;11387;51.612;7.210;2023-03-08T04:26:31;77.65;;;34.00;;
22439;SDS011;11387;51.612;7.210;2023-03-08T04:29:00;77.60;;;33.53;;
22439;SDS011;11387;51.612;7.210;2023-03-08T04:31:33;79.07;;;34.47;;
22439;SDS011;11387;51.612;7.210;2023-03-08T04:34:03;87.32;;;34.08;;
22439;SDS011;11387;51.612;7.210;2023-03-08T04:36:32;73.18;;;32.35;;
22439;SDS011;11387;51.612;7.210;2023-03-08T04:39:00;72.63;;;32.90;;
22439;SDS011;11387;51.612;7.210;2023-03-08T04:41:29;76.88;;;32.70;;
22439;SDS011;11387;51.612;7.210;2023-03-08T04:43:57;68.72;;;32.20;;
22439;SDS011;11387;51.612;7.210;2023-03-08T04:46:26;80.25;;;32.97;;
22439;SDS011;11387;51.612;7.210;2023-03-08T04:48:56;70.82;;;30.77;;
22439;SDS011;11387;51.612;7.210;2023-03-08T04:51:25;66.18;;;31.45;;
22439;SDS011;11387;51.612;7.210;2023-03-08T04:53:54;79.25;;;33.08;;
22439;SDS011;11387;51.612;7.210;2023-03-08T04:56:23;83.38;;;33.45;;
22439;SDS011;11387;51.612;7.210;2023-03-08T04:58:51;69.43;;;30.42;;
22439;SDS011;11387;51.612;7.210;2023-03-08T05:01:21;67.55;;;31.50;;
22439;SDS011;11387;51.612;7.210;2023-03-08T05:03:50;69.40;;;30.70;;
22439;SDS011;11387;51.612;7.210;2023-03-08T05:06:21;70.45;;;32.25;;
22439;SDS011;11387;51.612;7.210;2023-03-08T05:08:54;73.07;;;31.23;;
22439;SDS011;11387;51.612;7.210;2023-03-08T05:11:24;71.78;;;32.58;;
22439;SDS011;11387;51.612;7.210;2023-03-08T05:13:58;76.20;;;33.88;;
22439;SDS011;11387;51.612;7.210;2023-03-08T05:16:30;76.85;;;34.22;;
22439;SDS011;11387;51.612;7.210;2023-03-08T05:18:58;83.60;;;35.88;;
22439;SDS011;11387;51.612;7.210;2023-03-08T05:21:28;82.32;;;37.28;;
22439;SDS011;11387;51.612;7.210;2023-03-08T05:23:57;88.10;;;37.67;;
22439;SDS011;11387;51.612;7.210;2023-03-08T05:26:26;79.15;;;38.50;;
22439;SDS011;11387;51.612;7.210;2023-03-08T05:28:54;87.57;;;37.42;;
22439;SDS011;11387;51.612;7.210;2023-03-08T05:31:23;87.30;;;35.90;;
22439;SDS011;11387;51.612;7.210;2023-03-08T05:33:52;76.38;;;34.15;;
22439;SDS011;11387;51.612;7.210;2023-03-08T05:36:20;73.38;;;32.88;;
22439;SDS011;11387;51.612;7.210;2023-03-08T05:38:52;72.93;;;31.95;;
22439;SDS011;11387;51.612;7.210;2023-03-08T05:41:22;65.97;;;30.52;;
22439;SDS011;11387;51.612;7.210;2023-03-08T05:43:50;75.28;;;32.45;;
22439;SDS011;11387;51.612;7.210;2023-03-08T05:46:19;69.68;;;31.35;;
22439;SDS011;11387;51.612;7.210;2023-03-08T05:48:48;70.22;;;31.60;;
22439;SDS011;11387;51.612;7.210;2023-03-08T05:51:17;72.20;;;31.50;;
22439;SDS011;11387;51.612;7.210;2023-03-08T05:53:46;76.15;;;31.92;;
22439;SDS011;11387;51.612;7.210;2023-03-08T05:56:17;78.55;;;32.15;;
22439;SDS011;11387;51.612;7.210;2023-03-08T05:58:47;71.80;;;31.05;;
22439;SDS011;11387;51.612;7.210;2023-03-08T06:01:16;76.88;;;31.88;;
22439;SDS011;11387;51.612;7.210;2023-03-08T06:03:47;70.22;;;31.98;;
22439;SDS011;11387;51.612;7.210;2023-03-08T06:06:17;91.40;;;33.42;;
22439;SDS011;11387;51.612;7.210;2023-03-08T06:08:47;76.80;;;33.03;;
22439;SDS011;11387;51.612;7.210;2023-03-08T06:11:21;79.60;;;32.80;;
22439;SDS011;11387;51.612;7.210;2023-03-08T06:13:50;64.80;;;29.80;;
22439;SDS011;11387;51.612;7.210;2023-03-08T06:16:19;73.03;;;34.00;;
22439;SDS011;11387;51.612;7.210;2023-03-08T06:18:47;76.68;;;32.28;;
22439;SDS011;11387;51.612;7.210;2023-03-08T06:21:16;75.82;;;31.58;;
22439;SDS011;11387;51.612;7.210;2023-03-08T06:23:47;71.68;;;29.88;;
22439;SDS011;11387;51.612;7.210;2023-03-08T06:26:20;76.07;;;30.08;;
22439;SDS011;11387;51.612;7.210;2023-03-08T06:28:50;53.05;;;25.40;;
22439;SDS011;11387;51.612;7.210;2023-03-08T06:31:18;58.00;;;25.35;;
22439;SDS011;11387;51.612;7.210;2023-03-08T06:33:47;47.00;;;23.02;;
22439;SDS011;11387;51.612;7.210;2023-03-08T06:36:16;41.00;;;20.80;;
22439;SDS011;11387;51.612;7.210;2023-03-08T06:38:47;34.28;;;18.50;;
22439;SDS011;11387;51.612;7.210;2023-03-08T06:41:17;45.17;;;20.15;;
22439;SDS011;11387;51.612;7.210;2023-03-08T06:43:48;40.00;;;18.67;;
22439;SDS011;11387;51.612;7.210;2023-03-08T06:46:17;35.72;;;17.75;;
22439;SDS011;11387;51.612;7.210;2023-03-08T06:48:46;31.83;;;15.77;;
22439;SDS011;11387;51.612;7.210;2023-03-08T06:51:15;39.28;;;18.65;;
22439;SDS011;11387;51.612;7.210;2023-03-08T06:53:45;38.47;;;19.23;;
22439;SDS011;11387;51.612;7.210;2023-03-08T06:56:14;32.90;;;15.73;;
22439;SDS011;11387;51.612;7.210;2023-03-08T06:58:43;28.08;;;15.10;;
22439;SDS011;11387;51.612;7.210;2023-03-08T07:01:13;27.23;;;15.02;;
22439;SDS011;11387;51.612;7.210;2023-03-08T07:03:43;23.38;;;10.90;;
22439;SDS011;11387;51.612;7.210;2023-03-08T07:06:12;23.10;;;11.15;;
22439;SDS011;11387;51.612;7.210;2023-03-08T07:08:41;20.63;;;11.02;;
22439;SDS011;11387;51.612;7.210;2023-03-08T07:11:10;22.98;;;10.93;;
22439;SDS011;11387;51.612;7.210;2023-03-08T07:13:39;23.05;;;11.10;;
22439;SDS011;11387;51.612;7.210;2023-03-08T07:16:08;19.95;;;10.60;;
22439;SDS011;11387;51.612;7.210;2023-03-08T07:18:40;22.17;;;10.80;;
22439;SDS011;11387;51.612;7.210;2023-03-08T07:21:09;16.85;;;8.43;;
22439;SDS011;11387;51.612;7.210;2023-03-08T07:23:38;22.08;;;8.52;;
22439;SDS011;11387;51.612;7.210;2023-03-08T07:26:07;19.17;;;8.50;;
22439;SDS011;11387;51.612;7.210;2023-03-08T07:28:36;14.75;;;7.38;;
22439;SDS011;11387;51.612;7.210;2023-03-08T07:31:05;16.42;;;8.23;;
22439;SDS011;11387;51.612;7.210;2023-03-08T07:33:37;18.77;;;9.18;;
22439;SDS011;11387;51.612;7.210;2023-03-08T07:36:07;20.00;;;8.57;;
22439;SDS011;11387;51.612;7.210;2023-03-08T07:38:36;19.13;;;8.55;;
22439;SDS011;11387;51.612;7.210;2023-03-08T07:41:04;20.00;;;9.13;;
22439;SDS011;11387;51.612;7.210;2023-03-08T07:43:33;18.65;;;8.82;;
22439;SDS011;11387;51.612;7.210;2023-03-08T07:46:02;17.50;;;8.60;;
22439;SDS011;11387;51.612;7.210;2023-03-08T07:48:31;20.42;;;10.18;;
22439;SDS011;11387;51.612;7.210;2023-03-08T07:51:00;26.30;;;10.77;;
22439;SDS011;11387;51.612;7.210;2023-03-08T07:53:33;25.27;;;10.05;;
22439;SDS011;11387;51.612;7.210;2023-03-08T07:56:02;21.48;;;9.35;;
22439;SDS011;11387;51.612;7.210;2023-03-08T07:58:32;26.20;;;8.02;;
22439;SDS011;11387;51.612;7.210;2023-03-08T08:01:00;20.70;;;8.18;;
22439;SDS011;11387;51.612;7.210;2023-03-08T08:03:29;43.30;;;11.70;;
22439;SDS011;11387;51.612;7.210;2023-03-08T08:06:00;20.75;;;8.40;;
22439;SDS011;11387;51.612;7.210;2023-03-08T08:08:30;22.00;;;7.70;;
22439;SDS011;11387;51.612;7.210;2023-03-08T08:11:00;20.25;;;8.65;;
22439;SDS011;11387;51.612;7.210;2023-03-08T08:13:29;29.20;;;8.88;;
22439;SDS011;11387;51.612;7.210;2023-03-08T08:15:57;24.50;;;8.95;;
22439;SDS011;11387;51.612;7.210;2023-03-08T08:18:26;22.17;;;8.32;;
22439;SDS011;11387;51.612;7.210;2023-03-08T08:20:59;16.23;;;7.22;;
22439;SDS011;11387;51.612;7.210;2023-03-08T08:23:29;23.15;;;9.32;;
22439;SDS011;11387;51.612;7.210;2023-03-08T08:25:57;29.98;;;9.80;;
22439;SDS011;11387;51.612;7.210;2023-03-08T08:28:28;28.13;;;9.63;;
22439;SDS011;11387;51.612;7.210;2023-03-08T08:30:57;17.48;;;8.40;;
22439;SDS011;11387;51.612;7.210;2023-03-08T08:33:27;20.27;;;7.90;;
22439;SDS011;11387;51.612;7.210;2023-03-08T08:35:57;17.83;;;6.40;;
22439;SDS011;11387;51.612;7.210;2023-03-08T08:38:26;16.95;;;7.40;;
22439;SDS011;11387;51.612;7.210;2023-03-08T08:40:58;13.65;;;6.05;;
22439;SDS011;11387;51.612;7.210;2023-03-08T08:43:29;11.82;;;6.18;;
22439;SDS011;11387;51.612;7.210;2023-03-08T08:45:58;15.02;;;6.75;;
22439;SDS011;11387;51.612;7.210;2023-03-08T08:48:27;13.40;;;5.63;;
22439;SDS011;11387;51.612;7.210;2023-03-08T08:50:59;10.90;;;4.88;;
22439;SDS011;11387;51.612;7.210;2023-03-08T08:53:28;13.80;;;6.10;;
22439;SDS011;11387;51.612;7.210;2023-03-08T08:55:56;19.17;;;6.18;;
22439;SDS011;11387;51.612;7.210;2023-03-08T08:58:25;13.18;;;6.13;;
22439;SDS011;11387;51.612;7.210;2023-03-08T09:00:55;13.77;;;7.07;;
22439;SDS011;11387;51.612;7.210;2023-03-08T09:03:23;12.98;;;5.78;;
22439;SDS011;11387;51.612;7.210;2023-03-08T09:05:52;10.10;;;5.25;;
22439;SDS011;11387;51.612;7.210;2023-03-08T09:08:21;10.20;;;5.22;;
22439;SDS011;11387;51.612;7.210;2023-03-08T09:10:50;9.73;;;4.75;;
22439;SDS011;11387;51.612;7.210;2023-03-08T09:13:18;7.78;;;4.47;;
22439;SDS011;11387;51.612;7.210;2023-03-08T09:15:47;12.20;;;5.05;;
22439;SDS011;11387;51.612;7.210;2023-03-08T09:18:17;10.25;;;4.97;;
22439;SDS011;11387;51.612;7.210;2023-03-08T09:20:46;9.38;;;5.43;;
22439;SDS011;11387;51.612;7.210;2023-03-08T09:23:14;12.77;;;6.40;;
22439;SDS011;11387;51.612;7.210;2023-03-08T09:25:43;10.38;;;6.18;;
22439;SDS011;11387;51.612;7.210;2023-03-08T09:28:12;13.82;;;6.90;;
22439;SDS011;11387;51.612;7.210;2023-03-08T09:30:40;9.93;;;6.15;;
22439;SDS011;11387;51.612;7.210;2023-03-08T09:33:09;16.42;;;8.63;;
22439;SDS011;11387;51.612;7.210;2023-03-08T09:35:39;14.70;;;8.68;;
22439;SDS011;11387;51.612;7.210;2023-03-08T09:38:08;16.95;;;9.38;;
22439;SDS011;11387;51.612;7.210;2023-03-08T09:40:38;18.73;;;9.95;;
22439;SDS011;11387;51.612;7.210;2023-03-08T09:43:17;22.05;;;11.25;;
22439;SDS011;11387;51.612;7.210;2023-03-08T09:45:53;21.45;;;11.75;;
22439;SDS011;11387;51.612;7.210;2023-03-08T09:48:24;19.50;;;10.55;;
22439;SDS011;11387;51.612;7.210;2023-03-08T09:50:58;25.48;;;12.15;;
22439;SDS011;11387;51.612;7.210;2023-03-08T09:53:33;28.55;;;14.18;;
22439;SDS011;11387;51.612;7.210;2023-03-08T09:56:13;21.20;;;11.38;;
22439;SDS011;11387;51.612;7.210;2023-03-08T09:58:47;23.63;;;12.05;;
22439;SDS011;11387;51.612;7.210;2023-03-08T10:01:23;20.60;;;10.93;;
22439;SDS011;11387;51.612;7.210;2023-03-08T10:04:03;24.98;;;10.68;;
22439;SDS011;11387;51.612;7.210;2023-03-08T10:06:44;19.80;;;10.13;;
22439;SDS011;11387;51.612;7.210;2023-03-08T10:09:26;23.77;;;10.73;;
22439;SDS011;11387;51.612;7.210;2023-03-08T10:12:02;23.83;;;10.10;;
22439;SDS011;11387;51.612;7.210;2023-03-08T10:14:44;15.85;;;9.07;;
22439;SDS011;11387;51.612;7.210;2023-03-08T10:17:17;11.38;;;7.43;;
22439;SDS011;11387;51.612;7.210;2023-03-08T10:19:50;13.82;;;7.50;;
22439;SDS011;11387;51.612;7.210;2023-03-08T10:22:26;12.93;;;6.38;;
22439;SDS011;11387;51.612;7.210;2023-03-08T10:24:57;10.30;;;5.93;;
22439;SDS011;11387;51.612;7.210;2023-03-08T10:27:30;9.80;;;5.82;;
22439;SDS011;11387;51.612;7.210;2023-03-08T10:30:12;9.90;;;5.03;;
22439;SDS011;11387;51.612;7.210;2023-03-08T10:32:43;8.90;;;5.60;;
22439;SDS011;11387;51.612;7.210;2023-03-08T10:35:14;7.85;;;4.95;;
22439;SDS011;11387;51.612;7.210;2023-03-08T10:37:50;10.63;;;6.18;;
22439;SDS011;11387;51.612;7.210;2023-03-08T10:40:19;9.25;;;6.00;;
22439;SDS011;11387;51.612;7.210;2023-03-08T10:42:50;9.38;;;5.75;;
22439;SDS011;11387;51.612;7.210;2023-03-08T10:45:24;8.43;;;6.32;;
22439;SDS011;11387;51.612;7.210;2023-03-08T10:47:55;10.27;;;6.60;;
22439;SDS011;11387;51.612;7.210;2023-03-08T10:50:25;7.72;;;4.97;;
22439;SDS011;11387;51.612;7.210;2023-03-08T10:53:06;9.18;;;6.03;;
22439;SDS011;11387;51.612;7.210;2023-03-08T10:55:39;8.10;;;5.00;;
22439;SDS011;11387;51.612;7.210;2023-03-08T10:58:24;8.05;;;4.85;;
22439;SDS011;11387;51.612;7.210;2023-03-08T11:00:56;6.78;;;4.78;;
22439;SDS011;11387;51.612;7.210;2023-03-08T11:03:26;8.40;;;5.38;;
22439;SDS011;11387;51.612;7.210;2023-03-08T11:05:56;10.95;;;5.85;;
22439;SDS011;11387;51.612;7.210;2023-03-08T11:08:28;12.45;;;5.55;;
22439;SDS011;11387;51.612;7.210;2023-03-08T11:10:58;11.88;;;5.00;;
22439;SDS011;11387;51.612;7.210;2023-03-08T11:13:35;6.60;;;4.32;;
22439;SDS011;11387;51.612;7.210;2023-03-08T11:19:25;9.75;;;5.03;;
22439;SDS011;11387;51.612;7.210;2023-03-08T11:22:03;7.53;;;5.38;;
22439;SDS011;11387;51.612;7.210;2023-03-08T11:24:48;10.02;;;6.18;;
22439;SDS011;11387;51.612;7.210;2023-03-08T11:27:28;9.63;;;7.10;;
22439;SDS011;11387;51.612;7.210;2023-03-08T11:30:12;13.20;;;6.32;;
22439;SDS011;11387;51.612;7.210;2023-03-08T11:32:49;12.70;;;7.13;;
22439;SDS011;11387;51.612;7.210;2023-03-08T11:35:30;9.77;;;6.57;;
22439;SDS011;11387;51.612;7.210;2023-03-08T11:38:05;10.88;;;7.43;;
22439;SDS011;11387;51.612;7.210;2023-03-08T11:40:47;10.07;;;6.77;;
22439;SDS011;11387;51.612;7.210;2023-03-08T11:43:27;11.00;;;6.75;;
22439;SDS011;11387;51.612;7.210;2023-03-08T11:46:10;8.90;;;5.68;;
22439;SDS011;11387;51.612;7.210;2023-03-08T11:48:53;8.57;;;5.95;;
22439;SDS011;11387;51.612;7.210;2023-03-08T11:51:37;9.00;;;4.80;;
22439;SDS011;11387;51.612;7.210;2023-03-08T11:54:12;8.73;;;4.20;;
22439;SDS011;11387;51.612;7.210;2023-03-08T11:56:47;6.68;;;3.80;;
22439;SDS011;11387;51.612;7.210;2023-03-08T11:59:20;7.15;;;3.75;;
22439;SDS011;11387;51.612;7.210;2023-03-08T12:01:58;6.88;;;4.00;;
22439;SDS011;11387;51.612;7.210;2023-03-08T12:04:31;4.50;;;2.63;;
22439;SDS011;11387;51.612;7.210;2023-03-08T12:07:06;5.93;;;3.08;;
22439;SDS011;11387;51.612;7.210;2023-03-08T12:09:47;5.03;;;2.80;;
22439;SDS011;11387;51.612;7.210;2023-03-08T12:12:22;5.57;;;3.70;;
22439;SDS011;11387;51.612;7.210;2023-03-08T12:14:54;3.78;;;2.55;;
22439;SDS011;11387;51.612;7.210;2023-03-08T12:17:27;7.63;;;3.38;;
22439;SDS011;11387;51.612;7.210;2023-03-08T12:20:02;4.40;;;2.92;;
22439;SDS011;11387;51.612;7.210;2023-03-08T12:22:41;4.55;;;2.90;;
22439;SDS011;11387;51.612;7.210;2023-03-08T12:25:19;6.30;;;3.08;;
22439;SDS011;11387;51.612;7.210;2023-03-08T12:27:54;7.57;;;3.28;;
22439;SDS011;11387;51.612;7.210;2023-03-08T12:30:32;7.18;;;2.97;;
22439;SDS011;11387;51.612;7.210;2023-03-08T12:33:10;6.43;;;2.40;;
22439;SDS011;11387;51.612;7.210;2023-03-08T12:35:49;4.05;;;2.22;;
22439;SDS011;11387;51.612;7.210;2023-03-08T12:38:27;8.82;;;2.75;;
22439;SDS011;11387;51.612;7.210;2023-03-08T12:40:59;3.70;;;2.50;;
22439;SDS011;11387;51.612;7.210;2023-03-08T12:43:30;6.45;;;3.00;;
22439;SDS011;11387;51.612;7.210;2023-03-08T12:46:01;4.20;;;2.42;;
22439;SDS011;11387;51.612;7.210;2023-03-08T12:48:33;4.50;;;2.75;;
22439;SDS011;11387;51.612;7.210;2023-03-08T12:51:06;7.55;;;3.10;;
22439;SDS011;11387;51.612;7.210;2023-03-08T12:53:54;3.67;;;2.65;;
22439;SDS011;11387;51.612;7.210;2023-03-08T12:56:28;5.90;;;2.60;;
22439;SDS011;11387;51.612;7.210;2023-03-08T12:59:02;3.75;;;2.15;;
22439;SDS011;11387;51.612;7.210;2023-03-08T13:01:58;4.38;;;2.70;;
22439;SDS011;11387;51.612;7.210;2023-03-08T13:04:29;5.40;;;2.78;;
22439;SDS011;11387;51.612;7.210;2023-03-08T13:09:57;5.35;;;2.60;;
22439;SDS011;11387;51.612;7.210;2023-03-08T13:12:35;6.25;;;2.72;;
22439;SDS011;11387;51.612;7.210;2023-03-08T13:15:21;6.10;;;2.60;;
22439;SDS011;11387;51.612;7.210;2023-03-08T13:17:56;5.80;;;2.78;;
22439;SDS011;11387;51.612;7.210;2023-03-08T13:20:39;4.47;;;3.00;;
22439;SDS011;11387;51.612;7.210;2023-03-08T13:23:20;5.67;;;3.43;;
22439;SDS011;11387;51.612;7.210;2023-03-08T13:29:17;7.28;;;3.53;;
22439;SDS011;11387;51.612;7.210;2023-03-08T13:31:48;6.35;;;3.58;;
22439;SDS011;11387;51.612;7.210;2023-03-08T13:34:21;6.35;;;4.07;;
22439;SDS011;11387;51.612;7.210;2023-03-08T13:36:52;6.03;;;3.80;;
22439;SDS011;11387;51.612;7.210;2023-03-08T13:39:22;6.25;;;3.58;;
22439;SDS011;11387;51.612;7.210;2023-03-08T13:41:52;6.40;;;3.75;;
22439;SDS011;11387;51.612;7.210;2023-03-08T13:44:33;7.03;;;4.90;;
22439;SDS011;11387;51.612;7.210;2023-03-08T13:47:08;5.28;;;4.05;;
22439;SDS011;11387;51.612;7.210;2023-03-08T13:49:46;7.20;;;4.47;;
22439;SDS011;11387;51.612;7.210;2023-03-08T13:52:19;5.82;;;4.50;;
22439;SDS011;11387;51.612;7.210;2023-03-08T13:54:50;5.80;;;3.60;;
22439;SDS011;11387;51.612;7.210;2023-03-08T13:57:21;6.75;;;4.82;;
22439;SDS011;11387;51.612;7.210;2023-03-08T13:59:53;8.50;;;5.43;;
22439;SDS011;11387;51.612;7.210;2023-03-08T14:02:25;7.13;;;4.70;;
22439;SDS011;11387;51.612;7.210;2023-03-08T14:04:56;8.27;;;4.88;;
22439;SDS011;11387;51.612;7.210;2023-03-08T14:07:26;6.38;;;4.43;;
22439;SDS011;11387;51.612;7.210;2023-03-08T14:09:56;6.20;;;4.40;;
22439;SDS011;11387;51.612;7.210;2023-03-08T14:12:26;6.72;;;4.85;;
22439;SDS011;11387;51.612;7.210;2023-03-08T14:15:00;7.20;;;4.72;;
22439;SDS011;11387;51.612;7.210;2023-03-08T14:17:33;8.52;;;4.88;;
22439;SDS011;11387;51.612;7.210;2023-03-08T14:20:03;8.18;;;4.63;;
22439;SDS011;11387;51.612;7.210;2023-03-08T14:22:45;7.18;;;4.28;;
22439;SDS011;11387;51.612;7.210;2023-03-08T14:25:20;6.65;;;4.47;;
22439;SDS011;11387;51.612;7.210;2023-03-08T14:27:50;6.95;;;4.70;;
22439;SDS011;11387;51.612;7.210;2023-03-08T14:30:20;7.85;;;5.05;;
22439;SDS011;11387;51.612;7.210;2023-03-08T14:32:56;6.38;;;4.30;;
22439;SDS011;11387;51.612;7.210;2023-03-08T14:35:27;7.55;;;4.07;;
22439;SDS011;11387;51.612;7.210;2023-03-08T14:37:59;7.22;;;4.75;;
22439;SDS011;11387;51.612;7.210;2023-03-08T14:40:29;7.97;;;5.13;;
22439;SDS011;11387;51.612;7.210;2023-03-08T14:43:03;7.95;;;4.80;;
22439;SDS011;11387;51.612;7.210;2023-03-08T14:45:36;7.40;;;4.97;;
22439;SDS011;11387;51.612;7.210;2023-03-08T14:48:21;8.00;;;5.38;;
22439;SDS011;11387;51.612;7.210;2023-03-08T14:50:55;8.13;;;4.43;;
22439;SDS011;11387;51.612;7.210;2023-03-08T14:53:29;11.40;;;4.35;;
22439;SDS011;11387;51.612;7.210;2023-03-08T14:55:59;5.97;;;4.43;;
22439;SDS011;11387;51.612;7.210;2023-03-08T14:58:32;8.73;;;5.22;;
22439;SDS011;11387;51.612;7.210;2023-03-08T15:01:06;7.60;;;5.18;;
22439;SDS011;11387;51.612;7.210;2023-03-08T15:03:36;7.00;;;4.75;;
22439;SDS011;11387;51.612;7.210;2023-03-08T15:06:06;6.30;;;4.78;;